<?xml version="1.0" encoding="UTF-8" standalone="no" ?>
<gpx xmlns="http://www.topografix.com/GPX/1/1" xmlns:xsi="http://www.w3.org/2001/XMLSchema-instance" xsi:schemaLocation="http://www.topografix.com/GPX/1/1 http://www.topografix.com/GPX/1/1/gpx.xsd" version="1.1" creator="VisuGPX - https://www.visugpx.com">
  <metadata>
    <name>pic de la Sabine</name>
  </metadata>
  <trk>
    <name><![CDATA[pic de la Sabine_2]]></name>
    <extensions>
      <line xmlns="http://www.topografix.com/GPX/gpx_style/0/2">
        <color>0000FF</color>
        <width>4</width>
      </line>
    </extensions>
    <trkseg>
      <trkpt lat="42.68496" lon="1.65174">
        <ele>1527</ele>
        <time>2021-07-01T14:31:16Z</time>
      </trkpt>
      <trkpt lat="42.68496" lon="1.65174">
        <ele>1527</ele>
        <time>2021-07-01T14:31:16Z</time>
      </trkpt>
      <trkpt lat="42.68491" lon="1.65174">
        <ele>1527</ele>
        <time>2021-07-01T14:31:21Z</time>
      </trkpt>
      <trkpt lat="42.68489" lon="1.65176">
        <ele>1530</ele>
        <time>2021-07-01T14:32:30Z</time>
      </trkpt>
      <trkpt lat="42.68486" lon="1.65178">
        <ele>1532</ele>
        <time>2021-07-01T14:32:35Z</time>
      </trkpt>
      <trkpt lat="42.68483" lon="1.65185">
        <ele>1534</ele>
        <time>2021-07-01T14:32:48Z</time>
      </trkpt>
      <trkpt lat="42.68483" lon="1.6519">
        <ele>1535</ele>
        <time>2021-07-01T14:33:07Z</time>
      </trkpt>
      <trkpt lat="42.6849" lon="1.65189">
        <ele>1535</ele>
        <time>2021-07-01T14:33:14Z</time>
      </trkpt>
      <trkpt lat="42.68497" lon="1.65188">
        <ele>1533</ele>
        <time>2021-07-01T14:33:20Z</time>
      </trkpt>
      <trkpt lat="42.68501" lon="1.65195">
        <ele>1532</ele>
        <time>2021-07-01T14:33:28Z</time>
      </trkpt>
      <trkpt lat="42.68504" lon="1.65198">
        <ele>1532</ele>
        <time>2021-07-01T14:33:32Z</time>
      </trkpt>
      <trkpt lat="42.68506" lon="1.65202">
        <ele>1534</ele>
        <time>2021-07-01T14:33:36Z</time>
      </trkpt>
      <trkpt lat="42.68508" lon="1.65207">
        <ele>1534</ele>
        <time>2021-07-01T14:33:40Z</time>
      </trkpt>
      <trkpt lat="42.68511" lon="1.65206">
        <ele>1535</ele>
        <time>2021-07-01T14:33:49Z</time>
      </trkpt>
      <trkpt lat="42.68513" lon="1.65209">
        <ele>1535</ele>
        <time>2021-07-01T14:34:11Z</time>
      </trkpt>
      <trkpt lat="42.68513" lon="1.65214">
        <ele>1537</ele>
        <time>2021-07-01T14:34:17Z</time>
      </trkpt>
      <trkpt lat="42.68517" lon="1.65211">
        <ele>1539</ele>
        <time>2021-07-01T14:34:29Z</time>
      </trkpt>
      <trkpt lat="42.68521" lon="1.65211">
        <ele>1539</ele>
        <time>2021-07-01T14:34:35Z</time>
      </trkpt>
      <trkpt lat="42.68524" lon="1.6521">
        <ele>1540</ele>
        <time>2021-07-01T14:34:41Z</time>
      </trkpt>
      <trkpt lat="42.68527" lon="1.65214">
        <ele>1541</ele>
        <time>2021-07-01T14:34:50Z</time>
      </trkpt>
      <trkpt lat="42.68527" lon="1.6522">
        <ele>1544</ele>
        <time>2021-07-01T14:34:58Z</time>
      </trkpt>
      <trkpt lat="42.68529" lon="1.65224">
        <ele>1546</ele>
        <time>2021-07-01T14:35:06Z</time>
      </trkpt>
      <trkpt lat="42.68532" lon="1.65224">
        <ele>1547</ele>
        <time>2021-07-01T14:35:12Z</time>
      </trkpt>
      <trkpt lat="42.68533" lon="1.65229">
        <ele>1550</ele>
        <time>2021-07-01T14:35:30Z</time>
      </trkpt>
      <trkpt lat="42.68536" lon="1.65232">
        <ele>1555</ele>
        <time>2021-07-01T14:35:41Z</time>
      </trkpt>
      <trkpt lat="42.68539" lon="1.65229">
        <ele>1556</ele>
        <time>2021-07-01T14:35:49Z</time>
      </trkpt>
      <trkpt lat="42.68543" lon="1.65229">
        <ele>1556</ele>
        <time>2021-07-01T14:35:53Z</time>
      </trkpt>
      <trkpt lat="42.68547" lon="1.65229">
        <ele>1556</ele>
        <time>2021-07-01T14:36:05Z</time>
      </trkpt>
      <trkpt lat="42.68547" lon="1.65233">
        <ele>1557</ele>
        <time>2021-07-01T14:36:16Z</time>
      </trkpt>
      <trkpt lat="42.68547" lon="1.65237">
        <ele>1558</ele>
        <time>2021-07-01T14:36:30Z</time>
      </trkpt>
      <trkpt lat="42.68545" lon="1.65239">
        <ele>1559</ele>
        <time>2021-07-01T14:36:35Z</time>
      </trkpt>
      <trkpt lat="42.68544" lon="1.65243">
        <ele>1559</ele>
        <time>2021-07-01T14:36:40Z</time>
      </trkpt>
      <trkpt lat="42.68548" lon="1.65243">
        <ele>1561</ele>
        <time>2021-07-01T14:36:57Z</time>
      </trkpt>
      <trkpt lat="42.68556" lon="1.65244">
        <ele>1563</ele>
        <time>2021-07-01T14:37:13Z</time>
      </trkpt>
      <trkpt lat="42.68559" lon="1.65245">
        <ele>1563</ele>
        <time>2021-07-01T14:37:20Z</time>
      </trkpt>
      <trkpt lat="42.68563" lon="1.65248">
        <ele>1563</ele>
        <time>2021-07-01T14:37:28Z</time>
      </trkpt>
      <trkpt lat="42.68568" lon="1.6525">
        <ele>1564</ele>
        <time>2021-07-01T14:37:33Z</time>
      </trkpt>
      <trkpt lat="42.68571" lon="1.65253">
        <ele>1563</ele>
        <time>2021-07-01T14:37:38Z</time>
      </trkpt>
      <trkpt lat="42.68574" lon="1.65254">
        <ele>1564</ele>
        <time>2021-07-01T14:37:43Z</time>
      </trkpt>
      <trkpt lat="42.68578" lon="1.65254">
        <ele>1564</ele>
        <time>2021-07-01T14:37:50Z</time>
      </trkpt>
      <trkpt lat="42.68585" lon="1.65252">
        <ele>1565</ele>
        <time>2021-07-01T14:38:01Z</time>
      </trkpt>
      <trkpt lat="42.68588" lon="1.65254">
        <ele>1565</ele>
        <time>2021-07-01T14:38:07Z</time>
      </trkpt>
      <trkpt lat="42.68591" lon="1.65252">
        <ele>1567</ele>
        <time>2021-07-01T14:38:12Z</time>
      </trkpt>
      <trkpt lat="42.68595" lon="1.65252">
        <ele>1568</ele>
        <time>2021-07-01T14:38:20Z</time>
      </trkpt>
      <trkpt lat="42.68598" lon="1.65252">
        <ele>1568</ele>
        <time>2021-07-01T14:38:24Z</time>
      </trkpt>
      <trkpt lat="42.68601" lon="1.65253">
        <ele>1568</ele>
        <time>2021-07-01T14:38:31Z</time>
      </trkpt>
      <trkpt lat="42.68605" lon="1.65252">
        <ele>1569</ele>
        <time>2021-07-01T14:38:39Z</time>
      </trkpt>
      <trkpt lat="42.6862" lon="1.65254">
        <ele>1568</ele>
        <time>2021-07-01T14:39:01Z</time>
      </trkpt>
      <trkpt lat="42.68624" lon="1.65253">
        <ele>1567</ele>
        <time>2021-07-01T14:39:11Z</time>
      </trkpt>
      <trkpt lat="42.6863" lon="1.65256">
        <ele>1566</ele>
        <time>2021-07-01T14:39:30Z</time>
      </trkpt>
      <trkpt lat="42.68638" lon="1.65254">
        <ele>1567</ele>
        <time>2021-07-01T14:39:41Z</time>
      </trkpt>
      <trkpt lat="42.68642" lon="1.65256">
        <ele>1568</ele>
        <time>2021-07-01T14:39:49Z</time>
      </trkpt>
      <trkpt lat="42.68654" lon="1.65257">
        <ele>1570</ele>
        <time>2021-07-01T14:40:07Z</time>
      </trkpt>
      <trkpt lat="42.68662" lon="1.65254">
        <ele>1570</ele>
        <time>2021-07-01T14:40:20Z</time>
      </trkpt>
      <trkpt lat="42.68667" lon="1.65256">
        <ele>1570</ele>
        <time>2021-07-01T14:40:27Z</time>
      </trkpt>
      <trkpt lat="42.6867" lon="1.65259">
        <ele>1572</ele>
        <time>2021-07-01T14:40:35Z</time>
      </trkpt>
      <trkpt lat="42.68686" lon="1.65255">
        <ele>1571</ele>
        <time>2021-07-01T14:41:00Z</time>
      </trkpt>
      <trkpt lat="42.6869" lon="1.65255">
        <ele>1571</ele>
        <time>2021-07-01T14:41:08Z</time>
      </trkpt>
      <trkpt lat="42.68697" lon="1.65255">
        <ele>1572</ele>
        <time>2021-07-01T14:41:18Z</time>
      </trkpt>
      <trkpt lat="42.68701" lon="1.65255">
        <ele>1572</ele>
        <time>2021-07-01T14:41:23Z</time>
      </trkpt>
      <trkpt lat="42.68705" lon="1.65257">
        <ele>1573</ele>
        <time>2021-07-01T14:41:30Z</time>
      </trkpt>
      <trkpt lat="42.68707" lon="1.65262">
        <ele>1573</ele>
        <time>2021-07-01T14:41:36Z</time>
      </trkpt>
      <trkpt lat="42.68709" lon="1.65265">
        <ele>1575</ele>
        <time>2021-07-01T14:41:43Z</time>
      </trkpt>
      <trkpt lat="42.68713" lon="1.65267">
        <ele>1575</ele>
        <time>2021-07-01T14:41:50Z</time>
      </trkpt>
      <trkpt lat="42.68717" lon="1.65267">
        <ele>1577</ele>
        <time>2021-07-01T14:41:55Z</time>
      </trkpt>
      <trkpt lat="42.68726" lon="1.65261">
        <ele>1576</ele>
        <time>2021-07-01T14:42:11Z</time>
      </trkpt>
      <trkpt lat="42.68731" lon="1.65261">
        <ele>1576</ele>
        <time>2021-07-01T14:42:19Z</time>
      </trkpt>
      <trkpt lat="42.68739" lon="1.65263">
        <ele>1575</ele>
        <time>2021-07-01T14:42:34Z</time>
      </trkpt>
      <trkpt lat="42.68743" lon="1.65262">
        <ele>1575</ele>
        <time>2021-07-01T14:42:38Z</time>
      </trkpt>
      <trkpt lat="42.68746" lon="1.65258">
        <ele>1575</ele>
        <time>2021-07-01T14:42:47Z</time>
      </trkpt>
      <trkpt lat="42.6875" lon="1.65259">
        <ele>1575</ele>
        <time>2021-07-01T14:42:57Z</time>
      </trkpt>
      <trkpt lat="42.68753" lon="1.65261">
        <ele>1576</ele>
        <time>2021-07-01T14:43:03Z</time>
      </trkpt>
      <trkpt lat="42.68756" lon="1.6526">
        <ele>1577</ele>
        <time>2021-07-01T14:43:10Z</time>
      </trkpt>
      <trkpt lat="42.68767" lon="1.65257">
        <ele>1578</ele>
        <time>2021-07-01T14:43:27Z</time>
      </trkpt>
      <trkpt lat="42.68771" lon="1.65258">
        <ele>1578</ele>
        <time>2021-07-01T14:43:37Z</time>
      </trkpt>
      <trkpt lat="42.68779" lon="1.6526">
        <ele>1580</ele>
        <time>2021-07-01T14:43:47Z</time>
      </trkpt>
      <trkpt lat="42.68787" lon="1.65264">
        <ele>1582</ele>
        <time>2021-07-01T14:44:00Z</time>
      </trkpt>
      <trkpt lat="42.68789" lon="1.6526">
        <ele>1583</ele>
        <time>2021-07-01T14:44:09Z</time>
      </trkpt>
      <trkpt lat="42.68792" lon="1.6526">
        <ele>1583</ele>
        <time>2021-07-01T14:44:13Z</time>
      </trkpt>
      <trkpt lat="42.68794" lon="1.65258">
        <ele>1584</ele>
        <time>2021-07-01T14:44:15Z</time>
      </trkpt>
      <trkpt lat="42.68797" lon="1.65256">
        <ele>1584</ele>
        <time>2021-07-01T14:44:19Z</time>
      </trkpt>
      <trkpt lat="42.68803" lon="1.65257">
        <ele>1584</ele>
        <time>2021-07-01T14:44:27Z</time>
      </trkpt>
      <trkpt lat="42.68804" lon="1.65254">
        <ele>1584</ele>
        <time>2021-07-01T14:44:31Z</time>
      </trkpt>
      <trkpt lat="42.68807" lon="1.65254">
        <ele>1584</ele>
        <time>2021-07-01T14:44:37Z</time>
      </trkpt>
      <trkpt lat="42.68812" lon="1.65255">
        <ele>1583</ele>
        <time>2021-07-01T14:44:46Z</time>
      </trkpt>
      <trkpt lat="42.68815" lon="1.65252">
        <ele>1583</ele>
        <time>2021-07-01T14:44:52Z</time>
      </trkpt>
      <trkpt lat="42.68818" lon="1.65251">
        <ele>1584</ele>
        <time>2021-07-01T14:44:56Z</time>
      </trkpt>
      <trkpt lat="42.68824" lon="1.65252">
        <ele>1584</ele>
        <time>2021-07-01T14:45:12Z</time>
      </trkpt>
      <trkpt lat="42.68827" lon="1.65251">
        <ele>1585</ele>
        <time>2021-07-01T14:45:17Z</time>
      </trkpt>
      <trkpt lat="42.6883" lon="1.65251">
        <ele>1585</ele>
        <time>2021-07-01T14:45:56Z</time>
      </trkpt>
      <trkpt lat="42.68833" lon="1.65248">
        <ele>1586</ele>
        <time>2021-07-01T14:46:00Z</time>
      </trkpt>
      <trkpt lat="42.68836" lon="1.6525">
        <ele>1585</ele>
        <time>2021-07-01T14:46:05Z</time>
      </trkpt>
      <trkpt lat="42.68844" lon="1.65252">
        <ele>1585</ele>
        <time>2021-07-01T14:46:16Z</time>
      </trkpt>
      <trkpt lat="42.68848" lon="1.65248">
        <ele>1586</ele>
        <time>2021-07-01T14:46:22Z</time>
      </trkpt>
      <trkpt lat="42.68851" lon="1.65249">
        <ele>1586</ele>
        <time>2021-07-01T14:46:26Z</time>
      </trkpt>
      <trkpt lat="42.68855" lon="1.65248">
        <ele>1588</ele>
        <time>2021-07-01T14:46:32Z</time>
      </trkpt>
      <trkpt lat="42.68862" lon="1.65246">
        <ele>1587</ele>
        <time>2021-07-01T14:46:41Z</time>
      </trkpt>
      <trkpt lat="42.6887" lon="1.6525">
        <ele>1584</ele>
        <time>2021-07-01T14:46:57Z</time>
      </trkpt>
      <trkpt lat="42.68874" lon="1.65251">
        <ele>1584</ele>
        <time>2021-07-01T14:47:05Z</time>
      </trkpt>
      <trkpt lat="42.68878" lon="1.65251">
        <ele>1585</ele>
        <time>2021-07-01T14:47:12Z</time>
      </trkpt>
      <trkpt lat="42.68881" lon="1.65249">
        <ele>1586</ele>
        <time>2021-07-01T14:47:20Z</time>
      </trkpt>
      <trkpt lat="42.68885" lon="1.6525">
        <ele>1587</ele>
        <time>2021-07-01T14:47:29Z</time>
      </trkpt>
      <trkpt lat="42.68887" lon="1.65255">
        <ele>1587</ele>
        <time>2021-07-01T14:47:48Z</time>
      </trkpt>
      <trkpt lat="42.68892" lon="1.65257">
        <ele>1589</ele>
        <time>2021-07-01T14:47:55Z</time>
      </trkpt>
      <trkpt lat="42.68895" lon="1.65254">
        <ele>1590</ele>
        <time>2021-07-01T14:48:03Z</time>
      </trkpt>
      <trkpt lat="42.68898" lon="1.65252">
        <ele>1592</ele>
        <time>2021-07-01T14:48:08Z</time>
      </trkpt>
      <trkpt lat="42.68904" lon="1.65247">
        <ele>1594</ele>
        <time>2021-07-01T14:48:16Z</time>
      </trkpt>
      <trkpt lat="42.68906" lon="1.65243">
        <ele>1595</ele>
        <time>2021-07-01T14:48:20Z</time>
      </trkpt>
      <trkpt lat="42.68909" lon="1.65241">
        <ele>1595</ele>
        <time>2021-07-01T14:48:25Z</time>
      </trkpt>
      <trkpt lat="42.68912" lon="1.65238">
        <ele>1594</ele>
        <time>2021-07-01T14:48:30Z</time>
      </trkpt>
      <trkpt lat="42.68915" lon="1.65236">
        <ele>1594</ele>
        <time>2021-07-01T14:48:34Z</time>
      </trkpt>
      <trkpt lat="42.68918" lon="1.65236">
        <ele>1595</ele>
        <time>2021-07-01T14:48:45Z</time>
      </trkpt>
      <trkpt lat="42.68924" lon="1.65233">
        <ele>1597</ele>
        <time>2021-07-01T14:48:58Z</time>
      </trkpt>
      <trkpt lat="42.68931" lon="1.6523">
        <ele>1598</ele>
        <time>2021-07-01T14:49:11Z</time>
      </trkpt>
      <trkpt lat="42.68938" lon="1.65235">
        <ele>1600</ele>
        <time>2021-07-01T14:49:22Z</time>
      </trkpt>
      <trkpt lat="42.68941" lon="1.65233">
        <ele>1601</ele>
        <time>2021-07-01T14:49:30Z</time>
      </trkpt>
      <trkpt lat="42.68945" lon="1.65232">
        <ele>1603</ele>
        <time>2021-07-01T14:49:37Z</time>
      </trkpt>
      <trkpt lat="42.68948" lon="1.65231">
        <ele>1604</ele>
        <time>2021-07-01T14:49:55Z</time>
      </trkpt>
      <trkpt lat="42.6895" lon="1.65234">
        <ele>1609</ele>
        <time>2021-07-01T14:51:47Z</time>
      </trkpt>
      <trkpt lat="42.68949" lon="1.65237">
        <ele>1608</ele>
        <time>2021-07-01T14:51:50Z</time>
      </trkpt>
      <trkpt lat="42.6895" lon="1.65242">
        <ele>1608</ele>
        <time>2021-07-01T14:52:01Z</time>
      </trkpt>
      <trkpt lat="42.68953" lon="1.65244">
        <ele>1608</ele>
        <time>2021-07-01T14:52:06Z</time>
      </trkpt>
      <trkpt lat="42.6896" lon="1.65245">
        <ele>1608</ele>
        <time>2021-07-01T14:52:18Z</time>
      </trkpt>
      <trkpt lat="42.68964" lon="1.65247">
        <ele>1608</ele>
        <time>2021-07-01T14:52:32Z</time>
      </trkpt>
      <trkpt lat="42.68968" lon="1.6525">
        <ele>1609</ele>
        <time>2021-07-01T14:52:40Z</time>
      </trkpt>
      <trkpt lat="42.68972" lon="1.65249">
        <ele>1611</ele>
        <time>2021-07-01T14:52:47Z</time>
      </trkpt>
      <trkpt lat="42.68977" lon="1.65253">
        <ele>1612</ele>
        <time>2021-07-01T14:53:04Z</time>
      </trkpt>
      <trkpt lat="42.6898" lon="1.65253">
        <ele>1612</ele>
        <time>2021-07-01T14:53:13Z</time>
      </trkpt>
      <trkpt lat="42.68984" lon="1.65258">
        <ele>1612</ele>
        <time>2021-07-01T14:53:20Z</time>
      </trkpt>
      <trkpt lat="42.68995" lon="1.65266">
        <ele>1612</ele>
        <time>2021-07-01T14:53:39Z</time>
      </trkpt>
      <trkpt lat="42.68998" lon="1.65269">
        <ele>1613</ele>
        <time>2021-07-01T14:53:45Z</time>
      </trkpt>
      <trkpt lat="42.69002" lon="1.65268">
        <ele>1615</ele>
        <time>2021-07-01T14:53:52Z</time>
      </trkpt>
      <trkpt lat="42.69008" lon="1.65271">
        <ele>1617</ele>
        <time>2021-07-01T14:54:04Z</time>
      </trkpt>
      <trkpt lat="42.69012" lon="1.65272">
        <ele>1618</ele>
        <time>2021-07-01T14:54:09Z</time>
      </trkpt>
      <trkpt lat="42.69019" lon="1.65277">
        <ele>1618</ele>
        <time>2021-07-01T14:54:18Z</time>
      </trkpt>
      <trkpt lat="42.69023" lon="1.65275">
        <ele>1618</ele>
        <time>2021-07-01T14:54:23Z</time>
      </trkpt>
      <trkpt lat="42.69026" lon="1.65278">
        <ele>1618</ele>
        <time>2021-07-01T14:54:32Z</time>
      </trkpt>
      <trkpt lat="42.6903" lon="1.6528">
        <ele>1617</ele>
        <time>2021-07-01T14:54:36Z</time>
      </trkpt>
      <trkpt lat="42.69033" lon="1.65284">
        <ele>1616</ele>
        <time>2021-07-01T14:54:41Z</time>
      </trkpt>
      <trkpt lat="42.69037" lon="1.65286">
        <ele>1615</ele>
        <time>2021-07-01T14:54:49Z</time>
      </trkpt>
      <trkpt lat="42.69041" lon="1.65289">
        <ele>1614</ele>
        <time>2021-07-01T14:54:55Z</time>
      </trkpt>
      <trkpt lat="42.69046" lon="1.65288">
        <ele>1613</ele>
        <time>2021-07-01T14:55:04Z</time>
      </trkpt>
      <trkpt lat="42.69051" lon="1.6529">
        <ele>1612</ele>
        <time>2021-07-01T14:55:11Z</time>
      </trkpt>
      <trkpt lat="42.69054" lon="1.65295">
        <ele>1613</ele>
        <time>2021-07-01T14:55:14Z</time>
      </trkpt>
      <trkpt lat="42.69058" lon="1.65299">
        <ele>1614</ele>
        <time>2021-07-01T14:55:19Z</time>
      </trkpt>
      <trkpt lat="42.69062" lon="1.653">
        <ele>1614</ele>
        <time>2021-07-01T14:55:25Z</time>
      </trkpt>
      <trkpt lat="42.69066" lon="1.65303">
        <ele>1613</ele>
        <time>2021-07-01T14:55:36Z</time>
      </trkpt>
      <trkpt lat="42.69074" lon="1.65301">
        <ele>1615</ele>
        <time>2021-07-01T14:55:47Z</time>
      </trkpt>
      <trkpt lat="42.69085" lon="1.65309">
        <ele>1612</ele>
        <time>2021-07-01T14:56:04Z</time>
      </trkpt>
      <trkpt lat="42.69091" lon="1.65319">
        <ele>1611</ele>
        <time>2021-07-01T14:56:15Z</time>
      </trkpt>
      <trkpt lat="42.69095" lon="1.65321">
        <ele>1612</ele>
        <time>2021-07-01T14:56:22Z</time>
      </trkpt>
      <trkpt lat="42.69102" lon="1.65323">
        <ele>1613</ele>
        <time>2021-07-01T14:56:35Z</time>
      </trkpt>
      <trkpt lat="42.69108" lon="1.65331">
        <ele>1616</ele>
        <time>2021-07-01T14:56:46Z</time>
      </trkpt>
      <trkpt lat="42.69116" lon="1.65332">
        <ele>1616</ele>
        <time>2021-07-01T14:57:00Z</time>
      </trkpt>
      <trkpt lat="42.69119" lon="1.65336">
        <ele>1616</ele>
        <time>2021-07-01T14:57:04Z</time>
      </trkpt>
      <trkpt lat="42.69123" lon="1.65339">
        <ele>1616</ele>
        <time>2021-07-01T14:57:11Z</time>
      </trkpt>
      <trkpt lat="42.69126" lon="1.65342">
        <ele>1616</ele>
        <time>2021-07-01T14:57:18Z</time>
      </trkpt>
      <trkpt lat="42.6913" lon="1.65346">
        <ele>1616</ele>
        <time>2021-07-01T14:57:25Z</time>
      </trkpt>
      <trkpt lat="42.69134" lon="1.65348">
        <ele>1616</ele>
        <time>2021-07-01T14:57:33Z</time>
      </trkpt>
      <trkpt lat="42.69138" lon="1.65351">
        <ele>1617</ele>
        <time>2021-07-01T14:57:39Z</time>
      </trkpt>
      <trkpt lat="42.69142" lon="1.65353">
        <ele>1617</ele>
        <time>2021-07-01T14:57:44Z</time>
      </trkpt>
      <trkpt lat="42.69144" lon="1.65358">
        <ele>1617</ele>
        <time>2021-07-01T14:57:51Z</time>
      </trkpt>
      <trkpt lat="42.69165" lon="1.65374">
        <ele>1615</ele>
        <time>2021-07-01T14:58:24Z</time>
      </trkpt>
      <trkpt lat="42.69166" lon="1.65381">
        <ele>1616</ele>
        <time>2021-07-01T14:58:30Z</time>
      </trkpt>
      <trkpt lat="42.69167" lon="1.65387">
        <ele>1615</ele>
        <time>2021-07-01T14:58:36Z</time>
      </trkpt>
      <trkpt lat="42.69165" lon="1.65394">
        <ele>1614</ele>
        <time>2021-07-01T14:58:44Z</time>
      </trkpt>
      <trkpt lat="42.69169" lon="1.65398">
        <ele>1613</ele>
        <time>2021-07-01T14:58:51Z</time>
      </trkpt>
      <trkpt lat="42.69171" lon="1.65403">
        <ele>1612</ele>
        <time>2021-07-01T14:58:57Z</time>
      </trkpt>
      <trkpt lat="42.6918" lon="1.65405">
        <ele>1614</ele>
        <time>2021-07-01T14:59:13Z</time>
      </trkpt>
      <trkpt lat="42.69184" lon="1.65408">
        <ele>1613</ele>
        <time>2021-07-01T14:59:18Z</time>
      </trkpt>
      <trkpt lat="42.69189" lon="1.65417">
        <ele>1612</ele>
        <time>2021-07-01T14:59:28Z</time>
      </trkpt>
      <trkpt lat="42.69193" lon="1.65422">
        <ele>1612</ele>
        <time>2021-07-01T14:59:36Z</time>
      </trkpt>
      <trkpt lat="42.69196" lon="1.65427">
        <ele>1614</ele>
        <time>2021-07-01T14:59:51Z</time>
      </trkpt>
      <trkpt lat="42.69202" lon="1.65435">
        <ele>1616</ele>
        <time>2021-07-01T15:00:04Z</time>
      </trkpt>
      <trkpt lat="42.69207" lon="1.65444">
        <ele>1616</ele>
        <time>2021-07-01T15:00:14Z</time>
      </trkpt>
      <trkpt lat="42.69211" lon="1.65446">
        <ele>1616</ele>
        <time>2021-07-01T15:00:20Z</time>
      </trkpt>
      <trkpt lat="42.69214" lon="1.65451">
        <ele>1616</ele>
        <time>2021-07-01T15:00:35Z</time>
      </trkpt>
      <trkpt lat="42.69218" lon="1.65454">
        <ele>1616</ele>
        <time>2021-07-01T15:00:45Z</time>
      </trkpt>
      <trkpt lat="42.69219" lon="1.65462">
        <ele>1620</ele>
        <time>2021-07-01T15:01:02Z</time>
      </trkpt>
      <trkpt lat="42.69224" lon="1.65466">
        <ele>1620</ele>
        <time>2021-07-01T15:01:09Z</time>
      </trkpt>
      <trkpt lat="42.6923" lon="1.65472">
        <ele>1621</ele>
        <time>2021-07-01T15:01:38Z</time>
      </trkpt>
      <trkpt lat="42.6923" lon="1.65478">
        <ele>1622</ele>
        <time>2021-07-01T15:02:06Z</time>
      </trkpt>
      <trkpt lat="42.69234" lon="1.65492">
        <ele>1625</ele>
        <time>2021-07-01T15:02:33Z</time>
      </trkpt>
      <trkpt lat="42.6924" lon="1.65494">
        <ele>1626</ele>
        <time>2021-07-01T15:02:40Z</time>
      </trkpt>
      <trkpt lat="42.69243" lon="1.65497">
        <ele>1627</ele>
        <time>2021-07-01T15:02:48Z</time>
      </trkpt>
      <trkpt lat="42.69247" lon="1.655">
        <ele>1628</ele>
        <time>2021-07-01T15:03:03Z</time>
      </trkpt>
      <trkpt lat="42.69249" lon="1.65502">
        <ele>1630</ele>
        <time>2021-07-01T15:03:10Z</time>
      </trkpt>
      <trkpt lat="42.69253" lon="1.65502">
        <ele>1631</ele>
        <time>2021-07-01T15:03:13Z</time>
      </trkpt>
      <trkpt lat="42.69262" lon="1.65511">
        <ele>1632</ele>
        <time>2021-07-01T15:03:27Z</time>
      </trkpt>
      <trkpt lat="42.69265" lon="1.65514">
        <ele>1633</ele>
        <time>2021-07-01T15:03:38Z</time>
      </trkpt>
      <trkpt lat="42.69271" lon="1.6552">
        <ele>1633</ele>
        <time>2021-07-01T15:03:54Z</time>
      </trkpt>
      <trkpt lat="42.69279" lon="1.65528">
        <ele>1632</ele>
        <time>2021-07-01T15:04:12Z</time>
      </trkpt>
      <trkpt lat="42.69281" lon="1.65533">
        <ele>1632</ele>
        <time>2021-07-01T15:04:16Z</time>
      </trkpt>
      <trkpt lat="42.69284" lon="1.65539">
        <ele>1632</ele>
        <time>2021-07-01T15:04:27Z</time>
      </trkpt>
      <trkpt lat="42.69289" lon="1.65545">
        <ele>1632</ele>
        <time>2021-07-01T15:04:40Z</time>
      </trkpt>
      <trkpt lat="42.69295" lon="1.65555">
        <ele>1634</ele>
        <time>2021-07-01T15:05:04Z</time>
      </trkpt>
      <trkpt lat="42.69298" lon="1.6556">
        <ele>1635</ele>
        <time>2021-07-01T15:05:18Z</time>
      </trkpt>
      <trkpt lat="42.69301" lon="1.65565">
        <ele>1635</ele>
        <time>2021-07-01T15:05:27Z</time>
      </trkpt>
      <trkpt lat="42.69306" lon="1.65566">
        <ele>1636</ele>
        <time>2021-07-01T15:05:33Z</time>
      </trkpt>
      <trkpt lat="42.69318" lon="1.65577">
        <ele>1638</ele>
        <time>2021-07-01T15:06:08Z</time>
      </trkpt>
      <trkpt lat="42.69323" lon="1.65576">
        <ele>1638</ele>
        <time>2021-07-01T15:06:18Z</time>
      </trkpt>
      <trkpt lat="42.69327" lon="1.65577">
        <ele>1640</ele>
        <time>2021-07-01T15:06:27Z</time>
      </trkpt>
      <trkpt lat="42.6933" lon="1.65581">
        <ele>1640</ele>
        <time>2021-07-01T15:06:34Z</time>
      </trkpt>
      <trkpt lat="42.69341" lon="1.65589">
        <ele>1643</ele>
        <time>2021-07-01T15:06:53Z</time>
      </trkpt>
      <trkpt lat="42.69345" lon="1.65593">
        <ele>1641</ele>
        <time>2021-07-01T15:07:05Z</time>
      </trkpt>
      <trkpt lat="42.69351" lon="1.65601">
        <ele>1641</ele>
        <time>2021-07-01T15:07:16Z</time>
      </trkpt>
      <trkpt lat="42.69354" lon="1.65603">
        <ele>1641</ele>
        <time>2021-07-01T15:07:23Z</time>
      </trkpt>
      <trkpt lat="42.69357" lon="1.65606">
        <ele>1641</ele>
        <time>2021-07-01T15:07:27Z</time>
      </trkpt>
      <trkpt lat="42.69362" lon="1.65622">
        <ele>1640</ele>
        <time>2021-07-01T15:07:50Z</time>
      </trkpt>
      <trkpt lat="42.69366" lon="1.65624">
        <ele>1641</ele>
        <time>2021-07-01T15:07:58Z</time>
      </trkpt>
      <trkpt lat="42.69374" lon="1.65632">
        <ele>1640</ele>
        <time>2021-07-01T15:08:11Z</time>
      </trkpt>
      <trkpt lat="42.69379" lon="1.65632">
        <ele>1640</ele>
        <time>2021-07-01T15:08:18Z</time>
      </trkpt>
      <trkpt lat="42.69382" lon="1.65633">
        <ele>1641</ele>
        <time>2021-07-01T15:08:51Z</time>
      </trkpt>
      <trkpt lat="42.69395" lon="1.65643">
        <ele>1639</ele>
        <time>2021-07-01T15:09:15Z</time>
      </trkpt>
      <trkpt lat="42.69403" lon="1.65651">
        <ele>1639</ele>
        <time>2021-07-01T15:09:28Z</time>
      </trkpt>
      <trkpt lat="42.69403" lon="1.65658">
        <ele>1639</ele>
        <time>2021-07-01T15:09:41Z</time>
      </trkpt>
      <trkpt lat="42.69414" lon="1.65667">
        <ele>1640</ele>
        <time>2021-07-01T15:10:03Z</time>
      </trkpt>
      <trkpt lat="42.69418" lon="1.65671">
        <ele>1640</ele>
        <time>2021-07-01T15:10:08Z</time>
      </trkpt>
      <trkpt lat="42.69422" lon="1.65671">
        <ele>1640</ele>
        <time>2021-07-01T15:10:12Z</time>
      </trkpt>
      <trkpt lat="42.69434" lon="1.65675">
        <ele>1641</ele>
        <time>2021-07-01T15:10:31Z</time>
      </trkpt>
      <trkpt lat="42.69437" lon="1.65678">
        <ele>1641</ele>
        <time>2021-07-01T15:10:38Z</time>
      </trkpt>
      <trkpt lat="42.69441" lon="1.65682">
        <ele>1639</ele>
        <time>2021-07-01T15:10:43Z</time>
      </trkpt>
      <trkpt lat="42.69443" lon="1.65686">
        <ele>1638</ele>
        <time>2021-07-01T15:10:49Z</time>
      </trkpt>
      <trkpt lat="42.69446" lon="1.65689">
        <ele>1637</ele>
        <time>2021-07-01T15:10:52Z</time>
      </trkpt>
      <trkpt lat="42.69449" lon="1.65693">
        <ele>1635</ele>
        <time>2021-07-01T15:10:56Z</time>
      </trkpt>
      <trkpt lat="42.69452" lon="1.65694">
        <ele>1633</ele>
        <time>2021-07-01T15:11:04Z</time>
      </trkpt>
      <trkpt lat="42.69462" lon="1.65697">
        <ele>1629</ele>
        <time>2021-07-01T15:11:25Z</time>
      </trkpt>
      <trkpt lat="42.69466" lon="1.65699">
        <ele>1627</ele>
        <time>2021-07-01T15:11:30Z</time>
      </trkpt>
      <trkpt lat="42.69467" lon="1.65703">
        <ele>1627</ele>
        <time>2021-07-01T15:11:41Z</time>
      </trkpt>
      <trkpt lat="42.6947" lon="1.65706">
        <ele>1625</ele>
        <time>2021-07-01T15:11:45Z</time>
      </trkpt>
      <trkpt lat="42.69471" lon="1.65709">
        <ele>1625</ele>
        <time>2021-07-01T15:11:50Z</time>
      </trkpt>
      <trkpt lat="42.69472" lon="1.65713">
        <ele>1623</ele>
        <time>2021-07-01T15:11:55Z</time>
      </trkpt>
      <trkpt lat="42.69473" lon="1.65717">
        <ele>1622</ele>
        <time>2021-07-01T15:12:00Z</time>
      </trkpt>
      <trkpt lat="42.69475" lon="1.65726">
        <ele>1617</ele>
        <time>2021-07-01T15:12:15Z</time>
      </trkpt>
      <trkpt lat="42.69477" lon="1.6573">
        <ele>1615</ele>
        <time>2021-07-01T15:12:23Z</time>
      </trkpt>
      <trkpt lat="42.69477" lon="1.65734">
        <ele>1613</ele>
        <time>2021-07-01T15:12:29Z</time>
      </trkpt>
      <trkpt lat="42.69475" lon="1.65737">
        <ele>1612</ele>
        <time>2021-07-01T15:12:35Z</time>
      </trkpt>
      <trkpt lat="42.69475" lon="1.65742">
        <ele>1610</ele>
        <time>2021-07-01T15:12:40Z</time>
      </trkpt>
      <trkpt lat="42.69474" lon="1.65747">
        <ele>1610</ele>
        <time>2021-07-01T15:12:48Z</time>
      </trkpt>
      <trkpt lat="42.69473" lon="1.65752">
        <ele>1607</ele>
        <time>2021-07-01T15:13:03Z</time>
      </trkpt>
      <trkpt lat="42.69472" lon="1.65758">
        <ele>1606</ele>
        <time>2021-07-01T15:13:16Z</time>
      </trkpt>
      <trkpt lat="42.6947" lon="1.65762">
        <ele>1602</ele>
        <time>2021-07-01T15:13:23Z</time>
      </trkpt>
      <trkpt lat="42.69468" lon="1.65768">
        <ele>1601</ele>
        <time>2021-07-01T15:13:27Z</time>
      </trkpt>
      <trkpt lat="42.69467" lon="1.65781">
        <ele>1597</ele>
        <time>2021-07-01T15:13:48Z</time>
      </trkpt>
      <trkpt lat="42.69466" lon="1.65786">
        <ele>1597</ele>
        <time>2021-07-01T15:13:59Z</time>
      </trkpt>
      <trkpt lat="42.69464" lon="1.65792">
        <ele>1596</ele>
        <time>2021-07-01T15:14:09Z</time>
      </trkpt>
      <trkpt lat="42.69465" lon="1.65798">
        <ele>1594</ele>
        <time>2021-07-01T15:14:19Z</time>
      </trkpt>
      <trkpt lat="42.69462" lon="1.65803">
        <ele>1593</ele>
        <time>2021-07-01T15:14:26Z</time>
      </trkpt>
      <trkpt lat="42.69466" lon="1.65807">
        <ele>1589</ele>
        <time>2021-07-01T15:14:43Z</time>
      </trkpt>
      <trkpt lat="42.69465" lon="1.65813">
        <ele>1587</ele>
        <time>2021-07-01T15:14:56Z</time>
      </trkpt>
      <trkpt lat="42.69465" lon="1.65818">
        <ele>1587</ele>
        <time>2021-07-01T15:15:03Z</time>
      </trkpt>
      <trkpt lat="42.69466" lon="1.65823">
        <ele>1586</ele>
        <time>2021-07-01T15:15:07Z</time>
      </trkpt>
      <trkpt lat="42.69468" lon="1.65828">
        <ele>1585</ele>
        <time>2021-07-01T15:15:13Z</time>
      </trkpt>
      <trkpt lat="42.69469" lon="1.65834">
        <ele>1585</ele>
        <time>2021-07-01T15:15:19Z</time>
      </trkpt>
      <trkpt lat="42.69469" lon="1.65839">
        <ele>1585</ele>
        <time>2021-07-01T15:15:26Z</time>
      </trkpt>
      <trkpt lat="42.69472" lon="1.65844">
        <ele>1585</ele>
        <time>2021-07-01T15:15:37Z</time>
      </trkpt>
      <trkpt lat="42.69474" lon="1.65848">
        <ele>1584</ele>
        <time>2021-07-01T15:15:44Z</time>
      </trkpt>
      <trkpt lat="42.69476" lon="1.65855">
        <ele>1582</ele>
        <time>2021-07-01T15:15:57Z</time>
      </trkpt>
      <trkpt lat="42.69478" lon="1.65861">
        <ele>1583</ele>
        <time>2021-07-01T15:16:05Z</time>
      </trkpt>
      <trkpt lat="42.69478" lon="1.65867">
        <ele>1583</ele>
        <time>2021-07-01T15:16:14Z</time>
      </trkpt>
      <trkpt lat="42.69479" lon="1.65873">
        <ele>1582</ele>
        <time>2021-07-01T15:16:25Z</time>
      </trkpt>
      <trkpt lat="42.69478" lon="1.6588">
        <ele>1580</ele>
        <time>2021-07-01T15:16:53Z</time>
      </trkpt>
      <trkpt lat="42.69477" lon="1.65885">
        <ele>1581</ele>
        <time>2021-07-01T15:17:00Z</time>
      </trkpt>
      <trkpt lat="42.69477" lon="1.65889">
        <ele>1580</ele>
        <time>2021-07-01T15:18:17Z</time>
      </trkpt>
      <trkpt lat="42.6948" lon="1.65889">
        <ele>1580</ele>
        <time>2021-07-01T15:18:23Z</time>
      </trkpt>
      <trkpt lat="42.69486" lon="1.65895">
        <ele>1579</ele>
        <time>2021-07-01T15:18:33Z</time>
      </trkpt>
      <trkpt lat="42.69492" lon="1.65903">
        <ele>1577</ele>
        <time>2021-07-01T15:18:43Z</time>
      </trkpt>
      <trkpt lat="42.69493" lon="1.65908">
        <ele>1576</ele>
        <time>2021-07-01T15:18:49Z</time>
      </trkpt>
      <trkpt lat="42.69496" lon="1.65912">
        <ele>1575</ele>
        <time>2021-07-01T15:18:58Z</time>
      </trkpt>
      <trkpt lat="42.69499" lon="1.65916">
        <ele>1573</ele>
        <time>2021-07-01T15:19:04Z</time>
      </trkpt>
      <trkpt lat="42.69503" lon="1.65918">
        <ele>1571</ele>
        <time>2021-07-01T15:19:13Z</time>
      </trkpt>
      <trkpt lat="42.69507" lon="1.65919">
        <ele>1569</ele>
        <time>2021-07-01T15:19:21Z</time>
      </trkpt>
      <trkpt lat="42.6951" lon="1.65917">
        <ele>1569</ele>
        <time>2021-07-01T15:19:28Z</time>
      </trkpt>
      <trkpt lat="42.69512" lon="1.65922">
        <ele>1567</ele>
        <time>2021-07-01T15:19:32Z</time>
      </trkpt>
      <trkpt lat="42.69513" lon="1.65927">
        <ele>1566</ele>
        <time>2021-07-01T15:19:41Z</time>
      </trkpt>
      <trkpt lat="42.69519" lon="1.65926">
        <ele>1565</ele>
        <time>2021-07-01T15:19:48Z</time>
      </trkpt>
      <trkpt lat="42.69522" lon="1.65929">
        <ele>1564</ele>
        <time>2021-07-01T15:19:55Z</time>
      </trkpt>
      <trkpt lat="42.69527" lon="1.65928">
        <ele>1563</ele>
        <time>2021-07-01T15:19:59Z</time>
      </trkpt>
      <trkpt lat="42.69529" lon="1.65933">
        <ele>1562</ele>
        <time>2021-07-01T15:20:06Z</time>
      </trkpt>
      <trkpt lat="42.69531" lon="1.65938">
        <ele>1561</ele>
        <time>2021-07-01T15:20:13Z</time>
      </trkpt>
      <trkpt lat="42.69534" lon="1.65941">
        <ele>1557</ele>
        <time>2021-07-01T15:20:19Z</time>
      </trkpt>
      <trkpt lat="42.69536" lon="1.65944">
        <ele>1557</ele>
        <time>2021-07-01T15:20:29Z</time>
      </trkpt>
      <trkpt lat="42.69539" lon="1.65949">
        <ele>1556</ele>
        <time>2021-07-01T15:20:33Z</time>
      </trkpt>
      <trkpt lat="42.69541" lon="1.65952">
        <ele>1555</ele>
        <time>2021-07-01T15:20:37Z</time>
      </trkpt>
      <trkpt lat="42.69542" lon="1.65957">
        <ele>1554</ele>
        <time>2021-07-01T15:20:41Z</time>
      </trkpt>
      <trkpt lat="42.69544" lon="1.65962">
        <ele>1553</ele>
        <time>2021-07-01T15:20:46Z</time>
      </trkpt>
      <trkpt lat="42.69545" lon="1.65968">
        <ele>1552</ele>
        <time>2021-07-01T15:20:51Z</time>
      </trkpt>
    </trkseg>
  </trk>
</gpx>